Time;durP1;ratioP1;P1;durP2;ratioP2;P2;SDS_P1;SDS_P2;PMS_P1;PMS_P2;Temp;Humidity;BMP_temperature;BMP_pressure;BME280_temperature;BME280_humidity;BME280_pressure;Samples;Min_cycle;Max_cycle;Signal;HPM_P1;HPM_P2
2023/04/21 04:00:44;;;;;;;4.97;2.83;;;9.00;99.90;;;;;;5862071;23;20451;-70
2023/04/21 04:03:12;;;;;;;0.50;0.10;;;8.90;99.90;;;;;;4936440;29;20543;-70
2023/04/21 04:05:40;;;;;;;0.50;0.10;;;8.80;99.90;;;;;;4938932;29;20503;-70
2023/04/21 04:08:08;;;;;;;0.50;0.10;;;8.70;99.90;;;;;;4938039;29;20453;-70
2023/04/21 04:10:35;;;;;;;0.60;0.20;;;8.70;99.90;;;;;;4937603;29;20449;-70
2023/04/21 04:13:04;;;;;;;0.50;0.10;;;;;;;;;;4943478;23;20445;-73
2023/04/21 04:15:31;;;;;;;0.50;0.10;;;8.70;99.90;;;;;;4910449;29;20477;-72
2023/04/21 04:18:01;;;;;;;0.50;0.10;;;8.60;99.90;;;;;;4920085;29;20491;-71
2023/04/21 04:20:29;;;;;;;0.50;0.20;;;8.60;99.90;;;;;;4917007;29;20895;-72
2023/04/21 04:22:57;;;;;;;0.50;0.20;;;8.60;99.90;;;;;;4918340;29;20455;-72
2023/04/21 04:25:25;;;;;;;0.50;0.20;;;8.60;99.90;;;;;;4899182;29;20462;-72
2023/04/21 04:27:54;;;;;;;0.50;0.23;;;;;;;;;;4899706;29;20452;-72
2023/04/21 04:30:22;;;;;;;0.50;0.10;;;8.60;99.90;;;;;;4913314;29;20476;-73
2023/04/21 04:32:51;;;;;;;0.50;0.10;;;8.60;99.90;;;;;;4891718;29;20596;-71
2023/04/21 04:35:21;;;;;;;0.50;0.10;;;8.50;99.90;;;;;;4896460;29;21003;-72
2023/04/21 04:37:49;;;;;;;0.50;0.10;;;8.60;99.90;;;;;;4909268;29;20499;-72
2023/04/21 04:40:16;;;;;;;0.50;0.10;;;8.60;99.90;;;;;;4908662;29;20450;-71
2023/04/21 04:42:45;;;;;;;0.50;0.10;;;8.60;99.90;;;;;;4918622;29;20489;-72
2023/04/21 04:45:15;;;;;;;0.60;0.43;;;8.60;1.00;;;;;;4916870;29;20473;-71
2023/04/21 04:47:44;;;;;;;0.50;0.10;;;8.60;1.00;;;;;;4907725;29;20481;-72
2023/04/21 04:50:12;;;;;;;0.50;0.10;;;8.60;1.00;;;;;;4897889;29;20828;-72
2023/04/21 04:52:43;;;;;;;0.50;0.10;;;8.60;1.00;;;;;;4892016;29;20453;-72
2023/04/21 04:55:11;;;;;;;0.60;0.40;;;8.70;1.00;;;;;;4898287;29;20477;-71
2023/04/21 04:57:39;;;;;;;0.50;0.20;;;8.60;1.00;;;;;;4898264;29;20488;-72
2023/04/21 05:00:10;;;;;;;0.50;0.10;;;8.70;1.00;;;;;;4909866;29;20464;-73
2023/04/21 05:02:38;;;;;;;0.50;0.10;;;8.70;1.00;;;;;;4916375;29;20972;-72
2023/04/21 05:05:07;;;;;;;0.50;0.20;;;8.60;1.00;;;;;;4916719;29;20834;-72
2023/04/21 05:07:35;;;;;;;0.50;0.10;;;8.70;1.00;;;;;;4894944;29;20473;-72
2023/04/21 05:10:05;;;;;;;0.50;0.10;;;8.70;1.00;;;;;;4897103;29;20461;-73
2023/04/21 05:12:33;;;;;;;0.50;0.10;;;8.70;1.00;;;;;;4915867;29;20458;-73
2023/04/21 05:15:01;;;;;;;0.50;0.10;;;8.80;1.00;;;;;;4915601;29;20856;-73
2023/04/21 05:17:29;;;;;;;0.50;0.10;;;8.70;1.00;;;;;;4898230;29;20577;-71
2023/04/21 05:19:58;;;;;;;0.50;0.10;;;8.80;1.00;;;;;;4898270;29;20457;-73
2023/04/21 05:22:25;;;;;;;0.50;0.10;;;8.80;1.00;;;;;;4900861;29;20475;-67
2023/04/21 05:24:53;;;;;;;0.50;0.10;;;9.00;1.00;;;;;;4916962;29;20477;-73
2023/04/21 05:27:22;;;;;;;0.83;0.57;;;9.00;1.00;;;;;;4916371;29;20452;-72
2023/04/21 05:29:50;;;;;;;0.50;0.10;;;9.10;1.00;;;;;;4919524;29;20453;-74
2023/04/21 05:32:18;;;;;;;2.37;2.27;;;9.10;1.00;;;;;;4901059;29;20966;-72
2023/04/21 05:34:46;;;;;;;2.43;2.33;;;9.00;1.00;;;;;;4898116;29;20565;-72
2023/04/21 05:37:14;;;;;;;0.50;0.10;;;9.00;1.00;;;;;;4897227;29;20576;-73
2023/04/21 05:39:42;;;;;;;0.50;0.10;;;9.00;1.00;;;;;;4897239;29;20449;-72
2023/04/21 05:42:10;;;;;;;0.50;0.10;;;9.00;1.00;;;;;;4898304;29;20449;-72
2023/04/21 05:44:39;;;;;;;0.50;0.10;;;9.10;1.00;;;;;;4897383;29;20583;-72
2023/04/21 05:47:07;;;;;;;0.50;0.20;;;9.10;1.00;;;;;;4909211;29;20474;-72
2023/04/21 05:49:35;;;;;;;1.40;1.37;;;9.10;1.00;;;;;;4903035;29;20458;-71
2023/04/21 05:52:03;;;;;;;1.53;0.53;;;9.10;1.00;;;;;;4879742;29;20462;-72
2023/04/21 05:54:32;;;;;;;0.50;0.10;;;9.10;1.00;;;;;;4878465;29;20474;-72
2023/04/21 05:57:00;;;;;;;1.43;1.33;;;9.00;1.00;;;;;;4878836;29;20693;-71
2023/04/21 05:59:28;;;;;;;1.27;0.93;;;9.00;1.00;;;;;;4911265;29;20467;-72
2023/04/21 06:01:57;;;;;;;0.50;0.20;;;9.00;1.00;;;;;;4909457;29;20469;-71
2023/04/21 06:04:25;;;;;;;0.50;0.10;;;9.00;1.00;;;;;;4887294;29;20478;-72
2023/04/21 06:06:53;;;;;;;0.50;0.10;;;9.10;1.00;;;;;;4893610;29;20447;-72
2023/04/21 06:09:21;;;;;;;3.17;3.00;;;9.10;1.00;;;;;;4900839;29;20831;-71
2023/04/21 06:11:52;;;;;;;0.50;0.10;;;9.10;1.00;;;;;;4898408;29;20467;-71
2023/04/21 06:14:19;;;;;;;0.50;0.20;;;9.20;1.00;;;;;;4893122;29;20493;-72
2023/04/21 06:16:48;;;;;;;2.50;2.40;;;9.30;1.00;;;;;;4897051;29;20482;-72
2023/04/21 06:19:17;;;;;;;0.50;0.10;;;9.30;1.00;;;;;;4894317;29;20494;-71
2023/04/21 06:21:44;;;;;;;0.50;0.10;;;9.40;1.00;;;;;;4901842;29;20518;-73
2023/04/21 06:24:12;;;;;;;0.50;0.10;;;9.50;1.00;;;;;;4894324;29;20970;-72
2023/04/21 06:26:40;;;;;;;1.33;0.70;;;9.50;1.00;;;;;;4896013;29;20969;-71
2023/04/21 06:29:08;;;;;;;0.50;0.10;;;9.60;1.00;;;;;;4899515;29;20453;-71
2023/04/21 06:31:36;;;;;;;1.23;0.67;;;9.90;1.00;;;;;;4905812;29;20466;-73
2023/04/21 06:34:04;;;;;;;0.77;0.77;;;10.00;1.00;;;;;;4902823;29;20516;-74
2023/04/21 06:36:33;;;;;;;0.50;0.10;;;10.00;1.00;;;;;;4900721;29;20461;-75
2023/04/21 06:39:01;;;;;;;1.27;1.17;;;10.10;1.00;;;;;;4900236;29;20489;-71
2023/04/21 06:41:29;;;;;;;0.50;0.10;;;10.20;1.00;;;;;;4900474;29;20505;-72
2023/04/21 06:43:57;;;;;;;0.50;0.10;;;10.10;1.00;;;;;;4899998;29;20480;-72
2023/04/21 06:46:25;;;;;;;0.50;0.10;;;10.10;1.00;;;;;;4900251;29;20459;-73
2023/04/21 06:48:52;;;;;;;2.10;0.87;;;10.10;1.00;;;;;;4900861;29;20986;-73
2023/04/21 06:51:20;;;;;;;1.33;1.23;;;10.10;1.00;;;;;;4900419;29;20454;-73
2023/04/21 06:53:50;;;;;;;0.50;0.10;;;10.10;1.00;;;;;;4903515;29;20481;-72
2023/04/21 06:56:17;;;;;;;0.50;0.10;;;10.10;1.00;;;;;;4915470;29;20462;-73
2023/04/21 06:58:46;;;;;;;0.50;0.10;;;10.20;1.00;;;;;;4914991;29;20478;-73
2023/04/21 07:01:14;;;;;;;0.87;0.87;;;10.20;1.00;;;;;;4920479;29;20452;-72
2023/04/21 07:03:42;;;;;;;0.50;0.10;;;10.40;1.00;;;;;;4915910;29;20559;-72
2023/04/21 07:06:11;;;;;;;0.83;0.83;;;10.40;1.00;;;;;;4915710;29;20452;-73
2023/04/21 07:08:40;;;;;;;0.50;0.20;;;10.40;1.00;;;;;;4918735;29;20452;-73
2023/04/21 07:11:09;;;;;;;2.80;2.60;;;10.50;1.00;;;;;;4918763;29;20528;-74
2023/04/21 07:13:37;;;;;;;0.50;0.10;;;10.50;1.00;;;;;;4901097;29;20854;-72
2023/04/21 07:16:11;;;;;;;0.57;0.10;;;10.60;1.00;;;;;;4901121;29;20470;-71
2023/04/21 07:18:40;;;;;;;0.50;0.10;;;10.60;1.00;;;;;;4901127;29;20482;-73
2023/04/21 07:21:08;;;;;;;0.50;0.13;;;10.60;1.00;;;;;;4910634;29;20450;-72
2023/04/21 07:23:36;;;;;;;0.50;0.10;;;;;;;;;;4918059;29;20473;-77
2023/04/21 07:26:05;;;;;;;0.50;0.10;;;;;;;;;;4918187;29;20454;-72
2023/04/21 07:28:34;;;;;;;0.50;0.10;;;10.70;1.00;;;;;;4918375;29;20444;-72
2023/04/21 07:31:02;;;;;;;0.50;0.10;;;10.70;1.00;;;;;;4907928;29;20509;-73
2023/04/21 07:33:30;;;;;;;0.50;0.20;;;10.80;1.00;;;;;;4898697;29;20482;-72
2023/04/21 07:35:58;;;;;;;0.50;0.10;;;10.90;1.00;;;;;;4899652;29;20464;-73
2023/04/21 07:38:26;;;;;;;0.50;0.10;;;10.90;1.00;;;;;;4899246;29;20487;-73
2023/04/21 07:40:58;;;;;;;0.50;0.10;;;10.90;1.00;;;;;;4899732;29;20515;-73
2023/04/21 07:43:29;;;;;;;0.50;0.30;;;10.90;1.00;;;;;;4917411;29;20482;-71
2023/04/21 07:45:59;;;;;;;8.17;0.73;;;10.90;1.00;;;;;;4924014;29;20452;-72
2023/04/21 07:48:27;;;;;;;0.60;0.20;;;11.00;1.00;;;;;;4922132;29;20849;-73
2023/04/21 07:50:57;;;;;;;0.60;0.20;;;11.10;1.00;;;;;;4918215;29;20520;-72
2023/04/21 07:53:24;;;;;;;0.60;0.30;;;8.60;1.00;;;;;;4917595;29;20469;-73
2023/04/21 07:55:55;;;;;;;0.50;0.10;;;11.20;99.90;;;;;;4901789;29;20452;-74
2023/04/21 07:58:24;;;;;;;0.50;0.10;;;11.30;99.90;;;;;;4899254;29;21126;-73
2023/04/21 08:00:51;;;;;;;0.50;0.10;;;11.30;99.90;;;;;;4906689;29;20826;-72
2023/04/21 08:03:21;;;;;;;0.50;0.10;;;11.40;99.90;;;;;;4917046;29;20477;-72
2023/04/21 08:05:51;;;;;;;0.60;0.37;;;11.40;99.90;;;;;;4916866;29;20461;-72
2023/04/21 08:08:20;;;;;;;0.50;0.10;;;11.40;99.90;;;;;;4898602;29;20472;-72
2023/04/21 08:10:48;;;;;;;0.60;0.10;;;11.50;99.90;;;;;;4898836;29;20464;-72
2023/04/21 08:13:17;;;;;;;0.50;0.10;;;11.20;99.90;;;;;;4895482;29;20475;-72
2023/04/21 08:15:45;;;;;;;0.60;0.30;;;11.70;99.90;;;;;;4899738;29;20446;-73
2023/04/21 08:18:15;;;;;;;0.50;0.10;;;11.80;99.90;;;;;;4904332;29;20481;-72
2023/04/21 08:20:47;;;;;;;1.10;0.80;;;11.80;99.90;;;;;;4918515;29;20464;-71
2023/04/21 08:23:15;;;;;;;2.50;2.30;;;11.80;99.90;;;;;;4916772;29;20453;-72
2023/04/21 08:25:43;;;;;;;0.60;0.10;;;11.80;99.90;;;;;;4917698;29;20481;-72
2023/04/21 08:28:13;;;;;;;0.50;0.10;;;11.80;99.90;;;;;;4916976;29;20851;-72
2023/04/21 08:30:41;;;;;;;0.60;0.10;;;11.90;99.90;;;;;;4899708;29;20455;-73
2023/04/21 08:33:12;;;;;;;0.50;0.10;;;12.00;99.90;;;;;;4899550;29;20459;-73
2023/04/21 08:35:41;;;;;;;0.50;0.10;;;12.10;99.90;;;;;;4898691;29;20450;-73
2023/04/21 08:38:34;;;;;;;0.60;0.10;;;12.10;99.90;;;;;;4898317;29;20453;-72
2023/04/21 08:41:04;;;;;;;0.60;0.10;;;12.20;99.90;;;;;;4898019;29;20455;-73
2023/04/21 08:43:32;;;;;;;0.50;0.10;;;12.20;99.90;;;;;;4906514;29;20475;-74
2023/04/21 08:46:03;;;;;;;0.60;0.10;;;12.20;99.90;;;;;;4898042;29;20821;-73
2023/04/21 08:48:35;;;;;;;0.60;0.10;;;12.30;99.90;;;;;;4897902;29;20536;-72
2023/04/21 08:51:04;;;;;;;0.60;0.10;;;12.50;99.90;;;;;;4897904;29;20867;-72
2023/04/21 08:53:34;;;;;;;0.60;0.10;;;12.40;99.90;;;;;;4897696;29;20491;-72
2023/04/21 08:56:02;;;;;;;0.60;0.30;;;12.50;99.90;;;;;;4898849;29;20464;-72
2023/04/21 08:58:37;;;;;;;0.60;0.10;;;12.60;99.90;;;;;;4916254;29;20457;-72
2023/04/21 09:01:06;;;;;;;0.60;0.10;;;12.60;99.90;;;;;;4916349;29;20451;-73
2023/04/21 09:03:34;;;;;;;1.47;0.80;;;12.60;99.90;;;;;;4913912;29;20546;-72
2023/04/21 09:06:04;;;;;;;0.60;0.10;;;12.70;99.90;;;;;;4897448;29;20452;-72
2023/04/21 09:08:36;;;;;;;0.80;0.20;;;12.70;99.90;;;;;;4878987;29;20457;-72
2023/04/21 09:11:04;;;;;;;0.60;0.10;;;12.60;99.90;;;;;;4897784;29;20444;-72
2023/04/21 09:13:33;;;;;;;0.60;0.10;;;12.60;99.90;;;;;;4897531;29;20480;-72
2023/04/21 09:16:03;;;;;;;0.60;0.20;;;12.60;99.90;;;;;;4897345;29;20450;-71
2023/04/21 09:18:38;;;;;;;0.60;0.10;;;12.70;99.90;;;;;;4901596;29;20451;-73
2023/04/21 09:21:08;;;;;;;0.97;0.87;;;12.70;99.90;;;;;;4916641;29;20492;-73
2023/04/21 09:23:45;;;;;;;0.60;0.10;;;12.70;99.90;;;;;;4899923;29;20485;-72
2023/04/21 09:26:14;;;;;;;0.60;0.10;;;12.70;99.90;;;;;;4893216;29;20853;-73
2023/04/21 09:28:42;;;;;;;0.60;0.10;;;12.80;99.90;;;;;;4896607;29;20466;-72
2023/04/21 09:31:18;;;;;;;0.60;0.10;;;12.80;99.90;;;;;;4897188;29;20462;-72
2023/04/21 09:33:48;;;;;;;0.60;0.10;;;12.80;99.90;;;;;;4897312;29;20472;-73
2023/04/21 09:36:20;;;;;;;0.60;0.30;;;12.80;99.90;;;;;;4897227;29;20455;-73
2023/04/21 09:38:57;;;;;;;1.73;1.43;;;12.70;99.90;;;;;;4897418;29;20905;-73
2023/04/21 09:41:28;;;;;;;0.60;0.27;;;12.70;99.90;;;;;;4897282;29;20664;-73
2023/04/21 09:44:00;;;;;;;0.70;0.57;;;12.70;99.90;;;;;;4896691;29;20982;-73
2023/04/21 09:46:29;;;;;;;0.60;0.13;;;12.80;99.90;;;;;;4897478;29;20452;-73
2023/04/21 09:49:01;;;;;;;0.60;0.10;;;12.80;99.90;;;;;;4903066;29;20563;-72
2023/04/21 09:51:31;;;;;;;0.60;0.30;;;12.80;99.90;;;;;;4898371;29;20959;-73
2023/04/21 09:54:10;;;;;;;0.60;0.10;;;12.90;99.90;;;;;;4897125;29;20480;-73
2023/04/21 09:56:58;;;;;;;2.20;1.90;;;12.90;99.90;;;;;;4897246;29;20475;-73
2023/04/21 09:59:30;;;;;;;0.60;0.30;;;12.90;99.90;;;;;;4897003;29;20488;-72
2023/04/21 10:01:59;;;;;;;1.87;1.77;;;13.00;99.90;;;;;;4910534;29;20456;-73
2023/04/21 10:04:30;;;;;;;0.60;0.30;;;13.10;99.90;;;;;;4915199;29;20859;-73
2023/04/21 10:07:00;;;;;;;0.90;0.50;;;13.10;99.90;;;;;;4915463;29;20449;-73
2023/04/21 10:09:35;;;;;;;0.60;0.30;;;13.20;99.90;;;;;;4915924;29;20974;-73
2023/04/21 10:12:04;;;;;;;0.60;0.10;;;13.20;99.90;;;;;;4916304;29;20467;-72
2023/04/21 10:14:35;;;;;;;0.60;0.40;;;13.40;99.90;;;;;;4939233;23;20564;-71
2023/04/21 10:17:05;;;;;;;0.60;0.10;;;13.50;99.90;;;;;;4934908;29;20448;-70
2023/04/21 10:19:35;;;;;;;0.60;0.10;;;;;;;;;;4934535;29;20456;-70
2023/04/21 10:22:05;;;;;;;0.60;0.10;;;13.70;99.90;;;;;;4935132;29;20455;-71
2023/04/21 10:24:39;;;;;;;0.60;0.10;;;13.90;99.90;;;;;;4925224;29;20475;-71
2023/04/21 10:27:11;;;;;;;1.70;1.60;;;14.10;99.90;;;;;;4916247;29;20471;-72
2023/04/21 10:29:40;;;;;;;0.60;0.10;;;14.20;99.90;;;;;;4913087;29;20545;-72
2023/04/21 10:32:32;;;;;;;0.60;0.10;;;14.10;99.90;;;;;;4914635;29;20476;-71
2023/04/21 10:35:00;;;;;;;0.60;0.10;;;14.20;99.90;;;;;;4907369;29;20491;-71
2023/04/21 10:37:31;;;;;;;0.60;0.10;;;14.30;99.90;;;;;;4913570;29;20484;-71
2023/04/21 10:40:00;;;;;;;2.30;0.60;;;14.30;99.90;;;;;;4915566;29;20474;-71
2023/04/21 10:42:35;;;;;;;0.90;0.33;;;14.30;99.90;;;;;;4915491;29;20475;-77
2023/04/21 10:45:09;;;;;;;2.80;1.90;;;14.30;99.90;;;;;;4899889;29;20480;-71
2023/04/21 10:47:41;;;;;;;0.93;0.83;;;14.30;99.90;;;;;;4905282;29;20444;-72
2023/04/21 10:50:21;;;;;;;0.60;0.20;;;14.30;99.90;;;;;;4915460;29;20471;-71
2023/04/21 10:52:54;;;;;;;3.37;0.57;;;14.30;99.90;;;;;;4915801;29;20450;-71
2023/04/21 10:55:26;;;;;;;0.60;0.10;;;14.30;99.90;;;;;;4907135;29;20473;-71
2023/04/21 10:57:55;;;;;;;0.60;0.27;;;14.30;99.90;;;;;;4904459;29;20452;-72
2023/04/21 11:00:24;;;;;;;0.90;0.80;;;14.40;99.90;;;;;;4902045;29;20476;-70
2023/04/21 11:03:01;;;;;;;3.77;3.57;;;14.40;99.90;;;;;;4915805;29;20490;-72
2023/04/21 11:05:37;;;;;;;0.60;0.20;;;14.30;99.90;;;;;;4914680;29;20479;-71
2023/04/21 11:08:07;;;;;;;1.27;1.03;;;14.40;99.90;;;;;;4907037;29;20449;-73
2023/04/21 11:10:51;;;;;;;0.60;0.10;;;14.50;99.90;;;;;;4908369;29;20472;-72
2023/04/21 11:13:21;;;;;;;0.60;0.10;;;;;;;;;;4912406;29;20457;-71
2023/04/21 11:16:00;;;;;;;0.60;0.20;;;14.70;99.90;;;;;;4920432;29;20509;-72
2023/04/21 11:18:41;;;;;;;1.33;1.23;;;14.70;99.90;;;;;;4911646;29;20449;-72
2023/04/21 11:21:12;;;;;;;2.30;1.60;;;14.70;99.90;;;;;;4912973;29;20509;-72
2023/04/21 11:23:41;;;;;;;0.63;0.20;;;14.80;99.90;;;;;;4919822;29;20525;-71
2023/04/21 11:26:10;;;;;;;0.60;0.20;;;14.90;99.90;;;;;;4919316;29;20452;-72
2023/04/21 11:28:40;;;;;;;2.07;1.87;;;15.00;99.90;;;;;;4919772;29;20506;-72
2023/04/21 11:31:08;;;;;;;1.23;0.80;;;14.90;99.90;;;;;;4912369;29;20456;-71
2023/04/21 11:33:37;;;;;;;0.70;0.20;;;14.90;99.90;;;;;;4913509;29;20477;-71
2023/04/21 11:36:06;;;;;;;0.70;0.53;;;14.90;99.90;;;;;;4918464;29;20450;-71
2023/04/21 11:38:38;;;;;;;3.30;0.37;;;14.90;99.90;;;;;;4918589;29;20456;-71
2023/04/21 11:41:08;;;;;;;0.60;0.10;;;14.90;99.90;;;;;;4915111;29;20496;-71
2023/04/21 11:43:37;;;;;;;1.03;0.40;;;15.00;99.90;;;;;;4912874;29;20464;-72
2023/04/21 11:46:12;;;;;;;0.60;0.10;;;15.00;99.90;;;;;;4906437;29;20462;-71
2023/04/21 11:48:40;;;;;;;0.70;0.30;;;15.10;99.90;;;;;;4899430;29;20459;-72
2023/04/21 11:51:15;;;;;;;1.53;1.43;;;15.20;99.90;;;;;;4899513;29;20814;-73
2023/04/21 11:53:43;;;;;;;2.40;2.10;;;15.20;99.90;;;;;;4902662;29;20567;-72
2023/04/21 11:56:11;;;;;;;0.60;0.10;;;15.40;99.90;;;;;;4910738;29;20481;-71
2023/04/21 11:58:40;;;;;;;0.70;0.53;;;15.50;99.90;;;;;;4900010;29;20455;-73
2023/04/21 12:01:09;;;;;;;0.60;0.10;;;15.40;99.90;;;;;;4906631;29;20579;-72
2023/04/21 12:03:37;;;;;;;0.93;0.20;;;15.50;99.90;;;;;;4918208;29;20999;-72
2023/04/21 12:06:06;;;;;;;0.70;0.50;;;15.60;99.90;;;;;;4917801;29;20450;-72
2023/04/21 12:08:34;;;;;;;0.90;0.57;;;15.60;99.90;;;;;;4917144;29;21000;-73
2023/04/21 12:11:03;;;;;;;0.60;0.10;;;15.70;99.90;;;;;;4918447;29;20457;-72
2023/04/21 12:13:31;;;;;;;0.70;0.20;;;15.70;99.90;;;;;;4918145;29;20509;-72
2023/04/21 12:16:02;;;;;;;0.60;0.20;;;15.90;99.90;;;;;;4918447;29;20454;-72
2023/04/21 12:18:32;;;;;;;1.77;1.67;;;15.90;99.90;;;;;;4917478;29;20596;-72
2023/04/21 12:21:03;;;;;;;0.60;0.10;;;16.00;99.90;;;;;;4918731;29;20551;-72
2023/04/21 12:23:31;;;;;;;0.70;0.20;;;16.10;99.90;;;;;;4918530;29;20447;-72
2023/04/21 12:26:00;;;;;;;1.47;1.37;;;16.10;99.90;;;;;;4918174;29;20939;-72
2023/04/21 12:28:30;;;;;;;0.60;0.10;;;16.10;99.90;;;;;;4917799;29;20466;-72
2023/04/21 12:30:57;;;;;;;0.60;0.10;;;16.20;99.90;;;;;;4918715;29;20442;-73
2023/04/21 12:33:27;;;;;;;0.73;0.70;;;16.20;99.90;;;;;;4916318;29;20455;-73
2023/04/21 12:35:55;;;;;;;0.60;0.20;;;16.30;99.90;;;;;;4917875;29;20500;-72
2023/04/21 12:38:22;;;;;;;0.60;0.10;;;16.30;99.90;;;;;;4918100;29;20459;-71
2023/04/21 12:40:50;;;;;;;0.60;0.10;;;16.30;99.90;;;;;;4918131;29;21275;-72
2023/04/21 12:43:18;;;;;;;3.47;1.60;;;16.20;99.90;;;;;;4918023;29;20458;-73
2023/04/21 12:45:46;;;;;;;0.60;0.20;;;16.20;99.90;;;;;;4917542;29;20449;-72
2023/04/21 12:48:14;;;;;;;1.07;0.80;;;16.30;99.90;;;;;;4918113;29;20798;-71
2023/04/21 12:50:44;;;;;;;1.13;0.33;;;16.30;99.90;;;;;;4917360;29;20511;-73
2023/04/21 12:53:11;;;;;;;0.60;0.10;;;16.40;99.90;;;;;;4917213;29;20483;-71
2023/04/21 12:55:40;;;;;;;0.60;0.10;;;16.60;99.90;;;;;;4917352;29;20468;-71
2023/04/21 12:58:20;;;;;;;0.60;0.10;;;;;;;;;;4910931;29;20459;-71
2023/04/21 13:00:48;;;;;;;0.60;0.10;;;17.00;99.90;;;;;;4905768;29;20827;-72
2023/04/21 13:03:16;;;;;;;0.60;0.10;;;17.10;99.90;;;;;;4901087;29;20461;-71
2023/04/21 13:05:46;;;;;;;0.60;0.20;;;17.20;99.90;;;;;;4897561;29;20500;-71
2023/04/21 13:08:14;;;;;;;0.60;0.20;;;17.30;99.90;;;;;;4905319;29;20471;-71
2023/04/21 13:10:41;;;;;;;0.60;0.10;;;17.20;99.90;;;;;;4917200;29;20463;-73
2023/04/21 13:13:10;;;;;;;3.70;1.13;;;17.20;99.90;;;;;;4917037;29;20463;-72
2023/04/21 13:15:38;;;;;;;0.60;0.10;;;17.30;99.90;;;;;;4915993;29;20506;-71
2023/04/21 13:18:06;;;;;;;0.60;0.10;;;17.30;99.90;;;;;;4909641;29;20457;-71
2023/04/21 13:20:33;;;;;;;0.73;0.37;;;17.30;99.90;;;;;;4910705;29;20493;-71
2023/04/21 13:23:02;;;;;;;0.70;0.50;;;17.40;99.90;;;;;;4910464;29;20892;-72
2023/04/21 13:25:30;;;;;;;0.60;0.10;;;17.50;99.90;;;;;;4916496;29;20469;-70
2023/04/21 13:27:58;;;;;;;0.60;0.10;;;17.60;99.90;;;;;;4916643;29;20455;-71
2023/04/21 13:30:26;;;;;;;1.03;0.20;;;17.60;99.90;;;;;;4907704;29;20458;-73
2023/04/21 13:32:54;;;;;;;0.60;0.10;;;17.60;99.90;;;;;;4912120;29;20457;-72
2023/04/21 13:35:22;;;;;;;0.60;0.10;;;17.60;99.90;;;;;;4913970;29;20520;-72
2023/04/21 13:37:50;;;;;;;0.60;0.10;;;17.70;99.90;;;;;;4916590;29;20453;-71
2023/04/21 13:40:19;;;;;;;5.90;1.00;;;17.70;99.90;;;;;;4916630;29;20783;-71
2023/04/21 13:42:47;;;;;;;0.60;0.10;;;17.50;99.90;;;;;;4907979;29;20495;-71
2023/04/21 13:45:15;;;;;;;0.60;0.10;;;17.60;99.90;;;;;;4906252;29;20558;-72
2023/04/21 13:47:43;;;;;;;0.80;0.60;;;17.80;99.90;;;;;;4897197;29;20957;-71
2023/04/21 13:50:11;;;;;;;0.60;0.10;;;17.90;99.90;;;;;;4897054;29;20460;-72
2023/04/21 13:52:39;;;;;;;0.60;0.20;;;20.70;99.90;;;;;;4897090;29;20456;-71
2023/04/21 13:55:07;;;;;;;10.20;5.30;;;18.20;99.90;;;;;;4910804;29;20482;-71
2023/04/21 13:57:37;;;;;;;0.60;0.20;;;;;;;;;;4908836;29;20448;-72
2023/04/21 14:00:08;;;;;;;0.93;0.83;;;18.40;99.90;;;;;;4916008;29;20449;-73
2023/04/21 14:02:35;;;;;;;4.00;2.23;;;18.30;99.90;;;;;;4916467;29;20488;-71
2023/04/21 14:05:04;;;;;;;0.60;0.10;;;18.30;99.90;;;;;;4915882;29;20665;-73
2023/04/21 14:07:32;;;;;;;0.60;0.20;;;18.40;99.90;;;;;;4905996;29;20947;-71
2023/04/21 14:10:01;;;;;;;0.60;0.10;;;18.50;99.90;;;;;;4905499;29;20461;-72
2023/04/21 14:12:29;;;;;;;0.60;0.10;;;18.60;99.90;;;;;;4914332;29;20451;-73
2023/04/21 14:14:58;;;;;;;1.63;1.53;;;18.60;99.90;;;;;;4915752;29;20671;-72
2023/04/21 14:17:26;;;;;;;0.90;0.57;;;18.70;99.90;;;;;;4914928;29;20550;-72
2023/04/21 14:19:54;;;;;;;0.60;0.20;;;18.70;99.90;;;;;;4905113;29;20943;-72
2023/04/21 14:22:22;;;;;;;0.60;0.27;;;18.50;99.90;;;;;;4907385;29;20488;-73
2023/04/21 14:24:50;;;;;;;2.90;1.50;;;18.60;99.90;;;;;;4896657;29;20488;-71
2023/04/21 14:27:17;;;;;;;0.60;0.10;;;18.70;99.90;;;;;;4897285;29;20453;-73
2023/04/21 14:29:45;;;;;;;0.60;0.20;;;18.90;99.90;;;;;;4908002;29;20486;-73
2023/04/21 14:32:15;;;;;;;0.60;0.20;;;19.00;99.90;;;;;;4908441;29;20454;-72
2023/04/21 14:34:42;;;;;;;0.60;0.13;;;19.20;99.90;;;;;;4914494;29;20487;-72
2023/04/21 14:37:10;;;;;;;0.60;0.10;;;19.30;99.90;;;;;;4909884;29;20449;-70
2023/04/21 14:39:38;;;;;;;0.60;0.20;;;19.40;99.90;;;;;;4918592;29;20459;-72
2023/04/21 14:42:06;;;;;;;0.60;0.10;;;19.50;99.90;;;;;;4921717;29;20994;-71
2023/04/21 14:44:34;;;;;;;0.60;0.10;;;19.50;99.90;;;;;;4909121;29;20972;-73
2023/04/21 14:47:02;;;;;;;0.70;0.30;;;19.50;99.90;;;;;;4923076;29;20457;-71
2023/04/21 14:49:39;;;;;;;0.60;0.20;;;19.60;99.90;;;;;;4920466;29;20452;-72
2023/04/21 14:52:07;;;;;;;1.13;1.03;;;19.60;99.90;;;;;;4919911;29;20456;-72
2023/04/21 14:54:35;;;;;;;0.60;0.20;;;19.80;99.90;;;;;;4919352;29;20479;-72
2023/04/21 14:57:02;;;;;;;0.60;0.10;;;19.90;99.90;;;;;;4919714;29;20533;-72
2023/04/21 14:59:47;;;;;;;0.60;0.20;;;;;;;;;;4920004;29;20851;-74
2023/04/21 15:02:15;;;;;;;0.60;0.17;;;20.10;99.90;;;;;;4919431;29;20484;-72
2023/04/21 15:04:44;;;;;;;0.70;0.30;;;20.20;99.90;;;;;;4919166;29;20465;-74
2023/04/21 15:07:13;;;;;;;1.10;0.50;;;20.30;99.90;;;;;;4913537;29;20465;-72
2023/04/21 15:09:44;;;;;;;0.60;0.10;;;20.40;99.90;;;;;;4909115;29;20451;-72
2023/04/21 15:12:13;;;;;;;0.60;0.10;;;20.40;99.90;;;;;;4901309;29;20486;-73
2023/04/21 15:14:41;;;;;;;0.60;0.20;;;20.50;99.90;;;;;;4904184;29;20486;-73
2023/04/21 15:17:09;;;;;;;0.60;0.20;;;20.60;99.90;;;;;;4919155;29;20455;-72
2023/04/21 15:19:37;;;;;;;0.60;0.10;;;20.80;99.90;;;;;;4919504;29;20510;-71
2023/04/21 15:22:06;;;;;;;0.60;0.10;;;21.00;99.90;;;;;;4919449;29;20453;-72
2023/04/21 15:24:34;;;;;;;0.60;0.20;;;21.20;99.90;;;;;;4919099;29;20503;-72
2023/04/21 15:27:02;;;;;;;1.17;0.50;;;21.40;99.90;;;;;;4918942;29;20983;-71
2023/04/21 15:29:31;;;;;;;0.60;0.10;;;;;;;;;;4918791;29;20561;-72
2023/04/21 15:31:59;;;;;;;0.70;0.20;;;;;;;;;;4920010;29;20462;-75
2023/04/21 15:34:27;;;;;;;0.60;0.20;;;22.00;99.90;;;;;;4907848;29;20469;-73
2023/04/21 15:36:55;;;;;;;1.00;0.90;;;22.20;99.90;;;;;;4901184;29;20946;-73
2023/04/21 15:39:25;;;;;;;0.80;0.50;;;;;;;;;;4911491;29;20453;-74
2023/04/21 15:41:53;;;;;;;0.80;0.20;;;22.20;99.90;;;;;;4901441;29;20460;-72
2023/04/21 15:44:26;;;;;;;0.60;0.10;;;22.20;99.90;;;;;;4910295;29;20503;-73
2023/04/21 15:46:54;;;;;;;0.70;0.50;;;22.20;99.90;;;;;;4910934;29;20489;-71
2023/04/21 15:49:22;;;;;;;0.70;0.37;;;22.20;99.90;;;;;;4912806;29;21017;-73
2023/04/21 15:51:52;;;;;;;0.60;0.27;;;22.30;99.90;;;;;;4920755;29;20492;-72
2023/04/21 15:54:21;;;;;;;0.70;0.20;;;22.50;99.90;;;;;;4919740;29;20493;-72
2023/04/21 15:56:51;;;;;;;0.60;0.20;;;22.60;99.90;;;;;;4919184;29;21013;-72
2023/04/21 15:59:19;;;;;;;0.60;0.20;;;;;;;;;;4918907;29;20483;-72
2023/04/21 16:01:50;;;;;;;0.70;0.63;;;;;;;;;;4919432;29;20498;-72
2023/04/21 16:04:18;;;;;;;0.70;0.30;;;23.00;99.90;;;;;;4919123;29;20487;-72
2023/04/21 16:06:46;;;;;;;0.70;0.50;;;23.00;99.90;;;;;;4918807;29;20539;-72
2023/04/21 16:09:14;;;;;;;0.70;0.40;;;23.00;99.90;;;;;;4918967;29;20514;-73
2023/04/21 16:11:42;;;;;;;2.30;2.20;;;23.00;99.90;;;;;;4921719;29;20483;-72
2023/04/21 16:14:15;;;;;;;0.70;0.30;;;23.00;99.90;;;;;;4920715;29;20479;-74
2023/04/21 16:16:43;;;;;;;0.90;0.43;;;23.10;99.90;;;;;;4912617;29;20450;-71
2023/04/21 16:19:11;;;;;;;1.63;0.93;;;23.20;99.90;;;;;;4921923;29;20970;-72
2023/04/21 16:21:39;;;;;;;0.70;0.10;;;;;;;;;;4922121;29;20570;-73
2023/04/21 16:24:09;;;;;;;0.70;0.17;;;23.50;99.90;;;;;;4922044;29;20503;-71
2023/04/21 16:26:38;;;;;;;0.80;0.63;;;23.50;99.90;;;;;;4921811;29;20473;-71
2023/04/21 16:29:06;;;;;;;1.83;1.73;;;;;;;;;;4912284;29;20452;-71
2023/04/21 16:31:36;;;;;;;0.70;0.10;;;23.70;99.90;;;;;;4919874;29;20465;-72
2023/04/21 16:34:04;;;;;;;0.70;0.10;;;23.90;99.90;;;;;;4911159;29;20467;-72
2023/04/21 16:36:32;;;;;;;0.70;0.10;;;24.20;99.90;;;;;;4902927;29;20515;-73
2023/04/21 16:39:00;;;;;;;0.80;0.30;;;;;;;;;;4918053;29;20460;-73
2023/04/21 16:41:29;;;;;;;0.70;0.10;;;24.40;99.90;;;;;;4918049;29;20535;-71
2023/04/21 16:43:57;;;;;;;0.70;0.10;;;;;;;;;;4906671;29;20497;-73
2023/04/21 16:46:25;;;;;;;0.70;0.20;;;24.50;99.90;;;;;;4899145;29;20461;-72
2023/04/21 16:48:54;;;;;;;0.70;0.10;;;24.70;99.90;;;;;;4911250;29;20456;-72
2023/04/21 16:51:24;;;;;;;0.80;0.40;;;;;;;;;;4914857;29;20456;-73
2023/04/21 16:53:53;;;;;;;0.70;0.10;;;;;;;;;;4917360;29;20465;-73
2023/04/21 16:56:21;;;;;;;0.70;0.10;;;25.10;99.90;;;;;;4917578;29;20441;-73
2023/04/21 16:58:49;;;;;;;0.70;0.10;;;;;;;;;;4917336;29;20457;-73
2023/04/21 17:01:17;;;;;;;0.70;0.20;;;;;;;;;;4917865;29;20991;-73
2023/04/21 17:03:45;;;;;;;0.70;0.20;;;;;;;;;;4917420;29;20492;-71
2023/04/21 17:06:19;;;;;;;0.70;0.10;;;24.90;99.90;;;;;;4917175;29;20475;-73
2023/04/21 17:08:48;;;;;;;0.93;0.83;;;25.10;99.90;;;;;;4917636;29;20456;-73